createdAt,value
2022-09-05T00:01:42.400Z,99.90
2022-09-05T00:04:45.616Z,99.90
2022-09-05T00:07:32.953Z,99.90
2022-09-05T00:10:37.567Z,99.90
2022-09-05T00:13:29.522Z,99.90
2022-09-05T00:16:30.224Z,99.90
2022-09-05T00:23:17.594Z,99.90
2022-09-05T00:24:28.426Z,99.90
2022-09-05T00:25:46.072Z,99.90
2022-09-05T00:28:32.900Z,99.90
2022-09-05T00:31:56.042Z,99.90
2022-09-05T00:34:47.204Z,99.90
2022-09-05T00:37:26.883Z,99.90
2022-09-05T00:39:57.839Z,99.90
2022-09-05T00:42:47.099Z,99.90
2022-09-05T00:45:20.744Z,99.90
2022-09-05T00:48:06.144Z,99.90
2022-09-05T00:50:59.336Z,99.90
2022-09-05T00:53:39.200Z,99.90
2022-09-05T00:56:45.390Z,99.90
2022-09-05T00:59:43.461Z,99.90
2022-09-05T01:02:30.870Z,99.90
2022-09-05T01:05:37.799Z,99.90
2022-09-05T01:08:19.438Z,99.90
2022-09-05T01:10:57.086Z,99.90
2022-09-05T01:13:35.864Z,99.90
2022-09-05T01:16:27.558Z,99.90
2022-09-05T01:19:24.636Z,99.90
2022-09-05T01:22:49.785Z,99.90
2022-09-05T01:25:35.399Z,99.90
2022-09-05T01:29:17.313Z,99.90
2022-09-05T01:31:22.860Z,99.90
2022-09-05T01:34:31.737Z,99.90
2022-09-05T01:37:32.683Z,99.90
2022-09-05T01:40:34.752Z,99.90
2022-09-05T01:43:01.763Z,99.90
2022-09-05T01:45:44.930Z,99.90
2022-09-05T01:48:37.855Z,99.90
2022-09-05T01:51:43.302Z,99.90
2022-09-05T01:54:39.903Z,99.90
2022-09-05T01:57:21.884Z,99.90
2022-09-05T02:00:23.535Z,99.90
2022-09-05T02:03:27.685Z,99.90
2022-09-05T02:06:11.758Z,99.90
2022-09-05T02:09:05.277Z,99.90
2022-09-05T02:11:58.121Z,99.90
2022-09-05T02:14:42.857Z,99.90
2022-09-05T02:17:50.151Z,99.90
2022-09-05T02:20:23.891Z,99.90
2022-09-05T02:23:00.762Z,99.90
2022-09-05T02:26:02.831Z,99.90
2022-09-05T02:28:49.657Z,99.90
2022-09-05T02:31:26.603Z,99.90
2022-09-05T02:34:10.058Z,99.90
2022-09-05T02:37:03.238Z,99.90
2022-09-05T02:45:02.092Z,99.90
2022-09-05T02:45:14.209Z,99.90
2022-09-05T02:45:38.605Z,99.90
2022-09-05T02:48:22.165Z,99.90
2022-09-05T02:56:55.147Z,99.90
2022-09-05T02:57:39.225Z,99.90
2022-09-05T02:57:43.081Z,99.90
2022-09-05T03:00:05.351Z,99.90
2022-09-05T03:02:53.545Z,99.90
2022-09-05T03:05:37.283Z,99.90
2022-09-05T03:09:16.680Z,99.90
2022-09-05T03:12:28.622Z,99.90
2022-09-05T03:15:43.352Z,99.90
2022-09-05T03:18:28.528Z,99.90
2022-09-05T03:21:14.769Z,99.90
2022-09-05T03:24:08.996Z,99.90
2022-09-05T03:26:57.550Z,99.90
2022-09-05T03:29:34.645Z,99.90
2022-09-05T03:32:13.888Z,99.90
2022-09-05T03:35:26.256Z,99.90
2022-09-05T03:38:28.418Z,99.90
2022-09-05T03:41:23.810Z,99.90
2022-09-05T03:44:30.566Z,99.90
2022-09-05T03:46:57.364Z,99.90
2022-09-05T03:54:10.598Z,99.90
2022-09-05T03:57:16.381Z,99.90
2022-09-05T03:57:16.932Z,99.90
2022-09-05T03:59:50.069Z,99.90
2022-09-05T04:08:07.276Z,99.90
2022-09-05T04:08:17.040Z,99.90
2022-09-05T04:08:52.033Z,99.90
2022-09-05T04:11:25.179Z,99.90
2022-09-05T04:14:19.228Z,99.90
2022-09-05T04:16:53.496Z,99.90
2022-09-05T04:19:37.161Z,99.90
2022-09-05T04:22:07.069Z,99.90
2022-09-05T04:24:42.386Z,99.90
2022-09-05T04:27:21.194Z,99.90
2022-09-05T04:30:38.395Z,99.90
2022-09-05T04:33:36.038Z,99.90
2022-09-05T04:36:20.981Z,99.90
2022-09-05T04:39:06.992Z,99.90
2022-09-05T04:41:40.909Z,99.90
2022-09-05T04:44:27.177Z,99.90
2022-09-05T04:47:15.908Z,99.90
2022-09-05T04:49:57.162Z,99.90
2022-09-05T04:52:43.681Z,99.90
2022-09-05T04:55:15.155Z,99.90
2022-09-05T04:57:46.848Z,99.90
2022-09-05T05:04:52.157Z,99.90
2022-09-05T05:06:20.302Z,99.90
2022-09-05T05:06:43.823Z,99.90
2022-09-05T05:09:17.377Z,99.90
2022-09-05T05:15:00.136Z,99.90
2022-09-05T05:18:11.159Z,99.90
2022-09-05T05:18:39.532Z,99.90
2022-09-05T05:21:01.599Z,99.90
2022-09-05T05:23:54.575Z,99.90
2022-09-05T05:26:28.355Z,99.90
2022-09-05T05:29:09.329Z,99.90
2022-09-05T05:31:49.315Z,99.90
2022-09-05T05:34:46.237Z,99.90
2022-09-05T05:37:40.770Z,99.90
2022-09-05T05:40:17.005Z,99.90
2022-09-05T05:42:45.652Z,99.90
2022-09-05T05:45:17.807Z,99.90
2022-09-05T05:47:52.739Z,99.90
2022-09-05T05:50:43.146Z,99.90
2022-09-05T05:53:13.076Z,99.90
2022-09-05T05:56:21.197Z,99.90
2022-09-05T05:59:13.909Z,99.90
2022-09-05T06:02:02.502Z,99.90
2022-09-05T06:05:08.619Z,99.90
2022-09-05T06:10:19.739Z,99.90
2022-09-05T06:14:50.316Z,99.90
2022-09-05T06:15:10.156Z,99.90
2022-09-05T06:17:58.438Z,99.90
2022-09-05T06:22:06.353Z,99.90
2022-09-05T06:24:21.381Z,99.90
2022-09-05T06:27:10.223Z,99.90
2022-09-05T06:29:57.498Z,99.90
2022-09-05T06:32:58.465Z,99.90
2022-09-05T06:36:01.251Z,99.90
2022-09-05T06:38:53.187Z,99.90
2022-09-05T06:41:48.375Z,99.90
2022-09-05T06:44:35.197Z,99.90
2022-09-05T06:47:22.798Z,99.90
2022-09-05T06:50:24.303Z,99.90
2022-09-05T06:53:34.903Z,99.90
2022-09-05T06:56:10.844Z,99.90
2022-09-05T06:59:22.354Z,99.90
2022-09-05T07:02:08.671Z,99.90
2022-09-05T07:05:24.738Z,99.90
2022-09-05T07:07:37.141Z,99.90
2022-09-05T07:10:39.230Z,99.90
2022-09-05T07:13:32.006Z,99.90
2022-09-05T07:16:06.358Z,99.90
2022-09-05T07:19:14.250Z,99.90
2022-09-05T07:21:59.708Z,99.90
2022-09-05T07:24:53.463Z,99.90
2022-09-05T07:27:41.875Z,99.90
2022-09-05T07:30:28.682Z,99.90
2022-09-05T07:32:58.188Z,99.90
2022-09-05T07:35:29.286Z,99.90
2022-09-05T07:38:13.857Z,99.90
2022-09-05T07:40:47.233Z,99.90
2022-09-05T07:43:18.974Z,99.90
2022-09-05T07:46:13.076Z,99.90
2022-09-05T07:49:07.522Z,99.90
2022-09-05T07:55:26.189Z,99.90
2022-09-05T07:56:55.763Z,99.90
2022-09-05T07:57:31.133Z,99.90
2022-09-05T08:00:26.113Z,99.90
2022-09-05T08:03:08.324Z,99.90
2022-09-05T08:05:44.325Z,99.90
2022-09-05T08:08:23.118Z,99.90
2022-09-05T08:11:22.493Z,99.90
2022-09-05T08:13:53.945Z,99.90
2022-09-05T08:16:35.001Z,99.90
2022-09-05T08:19:29.582Z,99.90
2022-09-05T08:21:59.596Z,99.90
2022-09-05T08:24:52.199Z,99.90
2022-09-05T08:27:36.782Z,99.90
2022-09-05T08:30:25.617Z,99.90
2022-09-05T08:33:11.862Z,99.90
2022-09-05T08:36:00.823Z,99.90
2022-09-05T08:38:37.366Z,99.90
2022-09-05T08:42:05.008Z,99.90
2022-09-05T08:46:37.956Z,99.90
2022-09-05T08:47:45.092Z,99.90
2022-09-05T08:50:37.055Z,99.90
2022-09-05T08:53:46.454Z,99.90
2022-09-05T08:56:20.938Z,99.90
2022-09-05T08:59:31.556Z,99.90
2022-09-05T09:02:48.148Z,99.90
2022-09-05T09:06:13.238Z,99.90
2022-09-05T09:08:46.149Z,99.90
2022-09-05T09:11:34.279Z,99.90
2022-09-05T09:14:30.784Z,99.90
2022-09-05T09:17:18.308Z,99.90
2022-09-05T09:19:48.383Z,99.90
2022-09-05T09:22:52.294Z,99.90
2022-09-05T09:25:49.026Z,99.90
2022-09-05T09:28:47.856Z,99.90
2022-09-05T09:31:38.910Z,99.90
2022-09-05T09:34:23.741Z,99.90
2022-09-05T09:37:08.309Z,99.90
2022-09-05T09:39:41.053Z,99.90
2022-09-05T09:42:37.892Z,99.90
2022-09-05T09:45:27.684Z,99.90
2022-09-05T09:47:58.669Z,99.90
2022-09-05T09:50:37.896Z,99.90
2022-09-05T09:53:30.749Z,99.90
2022-09-05T09:56:32.520Z,99.90
2022-09-05T09:59:54.026Z,99.90
2022-09-05T10:02:50.747Z,99.90
2022-09-05T10:10:38.272Z,99.90
2022-09-05T10:10:52.849Z,99.90
2022-09-05T10:14:45.059Z,99.90
2022-09-05T10:17:45.895Z,99.90
2022-09-05T10:20:29.739Z,99.90
2022-09-05T10:23:19.682Z,99.90
2022-09-05T10:25:46.598Z,99.90
2022-09-05T10:28:52.701Z,99.90
2022-09-05T10:34:22.039Z,99.90
2022-09-05T10:35:10.387Z,99.90
2022-09-05T10:37:51.216Z,99.90
2022-09-05T10:40:23.243Z,99.90
2022-09-05T10:43:00.099Z,99.90
2022-09-05T10:45:48.850Z,99.90
2022-09-05T10:48:26.580Z,99.90
2022-09-05T10:51:04.421Z,99.90
2022-09-05T10:53:50.474Z,99.90
2022-09-05T10:56:26.082Z,99.90
2022-09-05T11:00:59.398Z,99.90
2022-09-05T11:02:25.982Z,99.90
2022-09-05T11:05:00.706Z,99.90
2022-09-05T11:07:42.175Z,99.90
2022-09-05T11:10:44.687Z,99.90
2022-09-05T11:13:25.286Z,99.90
2022-09-05T11:16:13.421Z,99.40
2022-09-05T11:18:55.049Z,98.10
2022-09-05T11:21:32.167Z,96.60
2022-09-05T11:24:27.662Z,95.60
2022-09-05T11:27:25.500Z,94.30
2022-09-05T11:29:57.237Z,93.50
2022-09-05T11:36:57.890Z,93.40
2022-09-05T11:40:04.428Z,91.90
2022-09-05T11:40:25.541Z,89.80
2022-09-05T11:42:52.267Z,86.20
2022-09-05T11:45:42.937Z,84.20
2022-09-05T11:48:30.105Z,82.90
2022-09-05T11:51:18.828Z,82.20
2022-09-05T11:54:06.742Z,81.30
2022-09-05T11:56:50.581Z,82.80
2022-09-05T12:00:31.922Z,81.70
2022-09-05T12:03:59.173Z,81.80
2022-09-05T12:06:50.933Z,78.90
2022-09-05T12:09:34.780Z,76.00
2022-09-05T12:12:38.894Z,77.30
2022-09-05T12:15:17.317Z,79.90
2022-09-05T12:18:24.143Z,80.70
2022-09-05T12:21:12.434Z,81.80
2022-09-05T12:24:24.827Z,80.60
2022-09-05T12:27:38.709Z,80.70
2022-09-05T12:29:55.553Z,80.60
2022-09-05T12:35:48.581Z,79.70
2022-09-05T12:36:09.947Z,78.30
2022-09-05T12:40:46.276Z,78.50
2022-09-05T12:41:35.205Z,78.00
2022-09-05T12:44:44.126Z,77.30
2022-09-05T12:47:20.101Z,78.30
2022-09-05T12:50:16.554Z,77.00
2022-09-05T12:52:47.056Z,74.10
2022-09-05T12:55:24.750Z,73.80
2022-09-05T13:02:57.874Z,74.70
2022-09-05T13:03:13.740Z,76.20
2022-09-05T13:06:48.472Z,77.70
2022-09-05T13:09:30.807Z,78.70
2022-09-05T13:14:50.555Z,79.70
2022-09-05T13:15:36.395Z,80.40
2022-09-05T13:18:14.102Z,80.90
2022-09-05T13:20:51.526Z,81.20
2022-09-05T13:23:45.595Z,81.60
2022-09-05T13:26:40.196Z,80.20
2022-09-05T13:29:19.683Z,79.10
2022-09-05T13:37:53.948Z,77.60
2022-09-05T13:38:19.618Z,74.60
2022-09-05T13:38:20.787Z,75.90
2022-09-05T13:40:48.735Z,74.10
2022-09-05T13:43:23.147Z,72.50
2022-09-05T13:46:16.982Z,72.10
2022-09-05T13:52:33.599Z,70.30
2022-09-05T13:55:20.333Z,69.80
2022-09-05T13:57:53.925Z,68.20
2022-09-05T14:00:28.249Z,68.30
2022-09-05T14:03:40.700Z,69.30
2022-09-05T14:06:46.536Z,70.00
2022-09-05T14:09:46.449Z,70.90
2022-09-05T14:12:32.898Z,70.50
2022-09-05T14:15:24.962Z,71.20
2022-09-05T14:18:02.865Z,73.70
2022-09-05T14:21:18.855Z,75.00
2022-09-05T14:24:03.263Z,75.00
2022-09-05T14:26:46.003Z,74.50
2022-09-05T14:29:35.939Z,73.40
2022-09-05T14:37:34.531Z,73.30
2022-09-05T14:37:52.311Z,73.40
2022-09-05T14:38:34.818Z,72.60
2022-09-05T14:41:40.002Z,72.60
2022-09-05T14:44:55.719Z,72.70
2022-09-05T14:47:48.557Z,72.80
2022-09-05T14:50:30.274Z,72.80
2022-09-05T14:56:21.532Z,73.00
2022-09-05T15:02:42.069Z,73.20
2022-09-05T15:02:57.213Z,73.20
2022-09-05T15:04:40.890Z,73.20
2022-09-05T15:07:29.412Z,73.80
2022-09-05T15:12:20.229Z,79.90
2022-09-05T15:13:11.595Z,90.30
2022-09-05T15:15:45.218Z,94.50
2022-09-05T15:18:32.221Z,93.40
2022-09-05T15:21:33.114Z,96.10
2022-09-05T15:24:07.908Z,99.90
2022-09-05T15:26:54.027Z,99.90
2022-09-05T15:29:35.755Z,99.90
2022-09-05T15:32:21.540Z,99.90
2022-09-05T15:34:50.239Z,99.90
2022-09-05T15:37:26.731Z,99.90
2022-09-05T15:40:21.821Z,99.90
2022-09-05T15:42:55.167Z,99.90
2022-09-05T15:45:36.143Z,99.90
2022-09-05T15:48:12.802Z,99.90
2022-09-05T15:50:50.103Z,99.90
2022-09-05T15:53:36.958Z,99.90
2022-09-05T15:56:10.201Z,99.90
2022-09-05T15:58:53.048Z,99.90
2022-09-05T16:01:59.701Z,99.90
2022-09-05T16:07:32.827Z,99.90
2022-09-05T16:10:35.029Z,99.90
2022-09-05T16:10:45.943Z,99.90
2022-09-05T16:12:56.545Z,99.90
2022-09-05T16:20:48.288Z,99.90
2022-09-05T16:23:14.351Z,99.90
2022-09-05T16:23:27.785Z,99.90
2022-09-05T16:24:11.456Z,99.90
2022-09-05T16:26:44.726Z,99.90
2022-09-05T16:29:35.202Z,99.90
2022-09-05T16:32:10.484Z,99.90
2022-09-05T16:34:54.801Z,99.90
2022-09-05T16:37:52.997Z,99.90
2022-09-05T16:40:32.012Z,99.90
2022-09-05T16:43:18.204Z,99.90
2022-09-05T16:45:59.916Z,99.90
2022-09-05T16:48:55.529Z,99.90
2022-09-05T16:51:35.499Z,99.90
2022-09-05T16:54:10.995Z,99.90
2022-09-05T16:56:58.481Z,99.90
2022-09-05T16:59:29.118Z,99.90
2022-09-05T17:02:14.784Z,99.90
2022-09-05T17:05:12.324Z,99.90
2022-09-05T17:08:02.732Z,99.90
2022-09-05T17:10:49.331Z,99.90
2022-09-05T17:13:42.910Z,99.90
2022-09-05T17:16:19.506Z,99.90
2022-09-05T17:18:50.974Z,99.90
2022-09-05T17:23:36.405Z,99.90
2022-09-05T17:29:27.403Z,99.90
2022-09-05T17:29:49.897Z,99.90
2022-09-05T17:33:43.463Z,99.90
2022-09-05T17:36:22.443Z,99.90
2022-09-05T17:39:41.959Z,99.90
2022-09-05T17:42:14.910Z,99.90
2022-09-05T17:44:53.139Z,99.90
2022-09-05T17:47:35.659Z,99.90
2022-09-05T17:50:37.877Z,99.90
2022-09-05T17:53:25.769Z,99.90
2022-09-05T17:55:55.007Z,99.90
2022-09-05T17:58:48.961Z,99.90
2022-09-05T18:01:26.843Z,99.90
2022-09-05T18:04:13.193Z,99.90
2022-09-05T18:06:58.878Z,99.90
2022-09-05T18:09:39.978Z,99.90
2022-09-05T18:12:27.085Z,99.90
2022-09-05T18:17:53.716Z,99.90
2022-09-05T18:20:44.874Z,99.90
2022-09-05T18:23:39.483Z,99.90
2022-09-05T18:26:24.227Z,99.90
2022-09-05T18:29:28.724Z,99.90
2022-09-05T18:33:28.990Z,99.90
2022-09-05T18:36:06.458Z,99.90
2022-09-05T18:38:51.222Z,99.90
2022-09-05T18:41:28.120Z,99.90
2022-09-05T18:44:13.870Z,99.90
2022-09-05T18:46:50.852Z,99.90
2022-09-05T18:50:23.350Z,99.90
2022-09-05T18:52:26.621Z,99.90
2022-09-05T18:55:31.678Z,99.90
2022-09-05T18:58:12.838Z,99.90
2022-09-05T19:00:47.185Z,99.90
2022-09-05T19:03:17.817Z,99.90
2022-09-05T19:06:34.482Z,99.90
2022-09-05T19:09:10.749Z,99.90
2022-09-05T19:12:10.883Z,99.90
2022-09-05T19:14:53.494Z,99.90
2022-09-05T19:17:29.959Z,99.90
2022-09-05T19:20:31.561Z,99.90
2022-09-05T19:23:12.015Z,99.90
2022-09-05T19:25:44.370Z,99.90
2022-09-05T19:32:36.101Z,99.90
2022-09-05T19:36:52.702Z,99.90
2022-09-05T19:37:03.964Z,99.90
2022-09-05T19:43:19.881Z,99.90
2022-09-05T19:47:26.820Z,99.90
2022-09-05T19:47:57.785Z,99.90
2022-09-05T19:48:34.231Z,99.90
2022-09-05T19:51:17.439Z,99.90
2022-09-05T19:53:55.209Z,99.90
2022-09-05T19:56:39.113Z,99.90
2022-09-05T19:59:33.788Z,99.90
2022-09-05T20:02:04.847Z,99.90
2022-09-05T20:04:52.824Z,99.90
2022-09-05T20:07:28.947Z,99.90
2022-09-05T20:09:58.271Z,99.90
2022-09-05T20:12:32.566Z,99.90
2022-09-05T20:15:24.485Z,99.90
2022-09-05T20:17:54.024Z,99.90
2022-09-05T20:20:25.705Z,99.90
2022-09-05T20:22:58.387Z,99.90
2022-09-05T20:25:35.338Z,99.90
2022-09-05T20:28:14.493Z,99.90
2022-09-05T20:30:51.904Z,99.90
2022-09-05T20:33:34.873Z,99.90
2022-09-05T20:43:12.031Z,99.90
2022-09-05T20:43:15.894Z,99.90
2022-09-05T20:43:24.002Z,99.90
2022-09-05T20:44:48.433Z,99.90
2022-09-05T20:51:18.596Z,99.90
2022-09-05T20:54:14.521Z,99.90
2022-09-05T20:54:22.370Z,99.90
2022-09-05T20:56:04.871Z,99.90
2022-09-05T20:58:34.761Z,99.90
2022-09-05T21:01:21.673Z,99.90
2022-09-05T21:03:58.322Z,99.90
2022-09-05T21:06:33.533Z,99.90
2022-09-05T21:09:22.594Z,99.90
2022-09-05T21:11:56.091Z,99.90
2022-09-05T21:14:28.049Z,99.90
2022-09-05T21:17:15.134Z,99.90
2022-09-05T21:19:43.865Z,99.90
2022-09-05T21:22:21.179Z,99.90
2022-09-05T21:24:48.906Z,99.90
2022-09-05T21:27:24.888Z,99.90
2022-09-05T21:29:58.943Z,99.90
2022-09-05T21:32:36.167Z,99.90
2022-09-05T21:35:15.479Z,99.90
2022-09-05T21:37:56.580Z,99.90
2022-09-05T21:40:23.573Z,99.90
2022-09-05T21:47:33.747Z,99.90
2022-09-05T21:47:46.669Z,99.90
2022-09-05T21:48:30.809Z,99.90
2022-09-05T21:51:02.519Z,99.90
2022-09-05T21:56:38.633Z,99.90
2022-09-05T21:59:33.300Z,99.90
2022-09-05T21:59:45.461Z,99.90
2022-09-05T22:02:07.194Z,99.90
2022-09-05T22:04:40.961Z,99.90
2022-09-05T22:07:14.558Z,99.90
2022-09-05T22:09:41.488Z,99.90
2022-09-05T22:12:26.953Z,99.90
2022-09-05T22:14:57.976Z,99.90
2022-09-05T22:17:39.408Z,99.90
2022-09-05T22:20:08.645Z,99.90
2022-09-05T22:22:40.118Z,99.90
2022-09-05T22:25:12.775Z,99.90
2022-09-05T22:27:43.780Z,99.90
2022-09-05T22:30:13.465Z,99.90
2022-09-05T22:32:40.359Z,99.90
2022-09-05T22:35:15.799Z,99.90
2022-09-05T22:38:12.466Z,99.90
2022-09-05T22:40:42.496Z,99.90
2022-09-05T22:43:10.556Z,99.90
2022-09-05T22:45:39.515Z,99.90
2022-09-05T22:48:10.044Z,99.90
2022-09-05T22:50:37.954Z,99.90
2022-09-05T22:53:07.082Z,99.90
2022-09-05T22:55:36.219Z,99.90
2022-09-05T22:58:05.499Z,99.90
2022-09-05T23:00:34.741Z,99.90
2022-09-05T23:03:04.344Z,99.90
2022-09-05T23:05:35.119Z,99.90
2022-09-05T23:08:05.153Z,99.90
2022-09-05T23:10:32.405Z,99.90
2022-09-05T23:13:02.534Z,99.90
2022-09-05T23:15:29.492Z,99.90
2022-09-05T23:17:58.735Z,99.90
2022-09-05T23:20:27.862Z,99.90
2022-09-05T23:22:55.406Z,99.90
2022-09-05T23:25:23.875Z,99.90
2022-09-05T23:27:52.900Z,99.90
2022-09-05T23:30:19.740Z,99.90
2022-09-05T23:32:48.529Z,99.90
2022-09-05T23:35:17.400Z,99.90
2022-09-05T23:37:45.767Z,99.90
2022-09-05T23:40:16.735Z,99.90
2022-09-05T23:42:54.605Z,99.90
2022-09-05T23:45:23.142Z,99.90
2022-09-05T23:47:50.541Z,99.90
2022-09-05T23:50:19.677Z,99.90
2022-09-05T23:52:47.324Z,99.90
2022-09-05T23:55:17.401Z,99.90
2022-09-05T23:57:44.828Z,99.90
